sensor_id;sensor_type;location;lat;lon;timestamp;pressure;altitude;pressure_sealevel;temperature;humidity
20971;BME280;10644;48.834;10.088;2023-01-28T00:01:41;97156.16;;;3.81;63.98
20971;BME280;10644;48.834;10.088;2023-01-28T00:04:11;97161.81;;;3.94;63.74
20971;BME280;10644;48.834;10.088;2023-01-28T00:06:50;97155.94;;;3.90;63.40
20971;BME280;10644;48.834;10.088;2023-01-28T00:09:17;97154.00;;;4.03;63.48
20971;BME280;10644;48.834;10.088;2023-01-28T00:11:46;97148.78;;;4.10;63.40
20971;BME280;10644;48.834;10.088;2023-01-28T00:14:23;97150.44;;;4.11;62.78
20971;BME280;10644;48.834;10.088;2023-01-28T00:16:48;97161.69;;;4.00;63.71
20971;BME280;10644;48.834;10.088;2023-01-28T00:19:35;97160.69;;;4.07;63.53
20971;BME280;10644;48.834;10.088;2023-01-28T00:22:07;97160.88;;;3.96;63.34
20971;BME280;10644;48.834;10.088;2023-01-28T00:24:40;97172.44;;;4.09;63.49
20971;BME280;10644;48.834;10.088;2023-01-28T00:27:06;97164.88;;;4.08;63.67
20971;BME280;10644;48.834;10.088;2023-01-28T00:29:56;97167.13;;;4.21;63.67
20971;BME280;10644;48.834;10.088;2023-01-28T00:32:39;97167.81;;;3.88;64.47
20971;BME280;10644;48.834;10.088;2023-01-28T00:35:14;97176.00;;;4.02;64.28
20971;BME280;10644;48.834;10.088;2023-01-28T00:38:02;97163.06;;;4.14;63.27
20971;BME280;10644;48.834;10.088;2023-01-28T00:40:43;97165.50;;;4.17;63.30
20971;BME280;10644;48.834;10.088;2023-01-28T00:43:24;97154.63;;;4.12;63.32
20971;BME280;10644;48.834;10.088;2023-01-28T00:45:51;97156.44;;;4.07;63.87
20971;BME280;10644;48.834;10.088;2023-01-28T00:48:18;97151.97;;;4.18;63.47
20971;BME280;10644;48.834;10.088;2023-01-28T00:50:45;97151.63;;;3.95;63.84
20971;BME280;10644;48.834;10.088;2023-01-28T00:53:24;97153.47;;;3.89;63.95
20971;BME280;10644;48.834;10.088;2023-01-28T00:55:50;97159.31;;;3.92;64.37
20971;BME280;10644;48.834;10.088;2023-01-28T00:58:30;97156.06;;;3.84;64.23
20971;BME280;10644;48.834;10.088;2023-01-28T01:04:04;97163.78;;;3.78;65.03
20971;BME280;10644;48.834;10.088;2023-01-28T01:06:56;97157.34;;;3.62;65.30
20971;BME280;10644;48.834;10.088;2023-01-28T01:09:21;97158.09;;;3.67;66.66
20971;BME280;10644;48.834;10.088;2023-01-28T01:11:56;97152.50;;;3.94;65.29
20971;BME280;10644;48.834;10.088;2023-01-28T01:14:32;97157.44;;;4.00;64.72
20971;BME280;10644;48.834;10.088;2023-01-28T01:16:58;97156.44;;;4.07;64.04
20971;BME280;10644;48.834;10.088;2023-01-28T01:19:23;97163.91;;;4.13;64.38
20971;BME280;10644;48.834;10.088;2023-01-28T01:21:56;97156.63;;;3.98;63.89
20971;BME280;10644;48.834;10.088;2023-01-28T01:24:22;97168.31;;;4.04;63.96
20971;BME280;10644;48.834;10.088;2023-01-28T01:26:59;97174.41;;;3.95;64.46
20971;BME280;10644;48.834;10.088;2023-01-28T01:29:26;97171.81;;;4.00;64.70
20971;BME280;10644;48.834;10.088;2023-01-28T01:35:02;97175.59;;;4.20;63.97
20971;BME280;10644;48.834;10.088;2023-01-28T01:40:35;97183.94;;;4.25;63.96
20971;BME280;10644;48.834;10.088;2023-01-28T01:43:15;97183.94;;;4.25;64.05
20971;BME280;10644;48.834;10.088;2023-01-28T01:45:49;97185.91;;;4.11;64.09
20971;BME280;10644;48.834;10.088;2023-01-28T01:48:45;97191.59;;;4.22;64.20
20971;BME280;10644;48.834;10.088;2023-01-28T01:51:20;97194.44;;;4.07;64.89
20971;BME280;10644;48.834;10.088;2023-01-28T01:53:52;97191.97;;;4.04;65.19
20971;BME280;10644;48.834;10.088;2023-01-28T01:56:31;97187.44;;;4.18;64.78
20971;BME280;10644;48.834;10.088;2023-01-28T01:58:57;97186.38;;;4.28;64.24
20971;BME280;10644;48.834;10.088;2023-01-28T02:01:35;97191.97;;;4.44;64.02
20971;BME280;10644;48.834;10.088;2023-01-28T02:07:14;97196.88;;;4.51;63.75
20971;BME280;10644;48.834;10.088;2023-01-28T02:13:02;97185.38;;;4.35;64.84
20971;BME280;10644;48.834;10.088;2023-01-28T02:15:46;97190.13;;;4.50;64.59
20971;BME280;10644;48.834;10.088;2023-01-28T02:18:48;97198.28;;;4.64;63.94
20971;BME280;10644;48.834;10.088;2023-01-28T02:30:41;97191.94;;;4.45;63.53
20971;BME280;10644;48.834;10.088;2023-01-28T02:36:33;97183.16;;;4.58;63.37
20971;BME280;10644;48.834;10.088;2023-01-28T02:39:10;97193.16;;;4.66;63.50
20971;BME280;10644;48.834;10.088;2023-01-28T02:41:51;97191.78;;;4.51;63.13
20971;BME280;10644;48.834;10.088;2023-01-28T02:44:31;97188.19;;;4.61;63.11
20971;BME280;10644;48.834;10.088;2023-01-28T02:47:15;97189.56;;;4.74;63.20
20971;BME280;10644;48.834;10.088;2023-01-28T02:50:04;97188.97;;;4.63;62.68
20971;BME280;10644;48.834;10.088;2023-01-28T02:53:03;97186.38;;;4.66;63.15
20971;BME280;10644;48.834;10.088;2023-01-28T03:05:38;97186.59;;;4.57;63.58
20971;BME280;10644;48.834;10.088;2023-01-28T03:08:08;97183.41;;;4.49;63.51
20971;BME280;10644;48.834;10.088;2023-01-28T03:11:04;97189.41;;;4.44;63.96
20971;BME280;10644;48.834;10.088;2023-01-28T03:14:05;97185.16;;;4.47;63.54
20971;BME280;10644;48.834;10.088;2023-01-28T03:20:13;97191.88;;;4.48;63.84
20971;BME280;10644;48.834;10.088;2023-01-28T03:23:08;97189.13;;;4.57;63.82
20971;BME280;10644;48.834;10.088;2023-01-28T03:29:22;97177.72;;;4.38;64.10
20971;BME280;10644;48.834;10.088;2023-01-28T03:32:33;97190.47;;;4.35;64.83
20971;BME280;10644;48.834;10.088;2023-01-28T03:35:34;97189.13;;;4.19;64.50
20971;BME280;10644;48.834;10.088;2023-01-28T03:38:19;97198.72;;;4.05;65.12
20971;BME280;10644;48.834;10.088;2023-01-28T03:40:59;97200.31;;;4.09;64.68
20971;BME280;10644;48.834;10.088;2023-01-28T03:43:27;97199.22;;;4.21;64.63
20971;BME280;10644;48.834;10.088;2023-01-28T03:46:01;97199.19;;;4.22;64.71
20971;BME280;10644;48.834;10.088;2023-01-28T03:48:34;97204.13;;;4.28;65.13
20971;BME280;10644;48.834;10.088;2023-01-28T03:50:59;97211.72;;;4.30;64.41
20971;BME280;10644;48.834;10.088;2023-01-28T03:53:25;97208.66;;;4.52;64.23
20971;BME280;10644;48.834;10.088;2023-01-28T03:59:08;97210.28;;;4.56;63.69
20971;BME280;10644;48.834;10.088;2023-01-28T04:01:40;97211.16;;;4.55;63.50
20971;BME280;10644;48.834;10.088;2023-01-28T04:04:43;97207.91;;;4.49;64.18
20971;BME280;10644;48.834;10.088;2023-01-28T04:07:14;97199.56;;;4.44;63.39
20971;BME280;10644;48.834;10.088;2023-01-28T04:09:43;97207.50;;;4.30;63.99
20971;BME280;10644;48.834;10.088;2023-01-28T04:12:21;97212.03;;;4.15;64.54
20971;BME280;10644;48.834;10.088;2023-01-28T04:14:49;97212.31;;;4.01;64.58
20971;BME280;10644;48.834;10.088;2023-01-28T04:17:17;97222.09;;;4.19;64.75
20971;BME280;10644;48.834;10.088;2023-01-28T04:19:50;97216.94;;;4.22;64.09
20971;BME280;10644;48.834;10.088;2023-01-28T04:22:17;97213.28;;;4.35;64.44
20971;BME280;10644;48.834;10.088;2023-01-28T04:27:56;97226.28;;;4.20;64.56
20971;BME280;10644;48.834;10.088;2023-01-28T04:30:24;97230.13;;;4.38;64.54
20971;BME280;10644;48.834;10.088;2023-01-28T04:32:51;97225.47;;;4.18;64.17
20971;BME280;10644;48.834;10.088;2023-01-28T04:35:36;97231.72;;;4.02;64.74
20971;BME280;10644;48.834;10.088;2023-01-28T04:38:08;97230.50;;;4.20;64.47
20971;BME280;10644;48.834;10.088;2023-01-28T04:40:41;97225.91;;;4.38;64.17
20971;BME280;10644;48.834;10.088;2023-01-28T04:43:15;97232.38;;;4.51;63.50
20971;BME280;10644;48.834;10.088;2023-01-28T04:46:02;97244.16;;;4.52;63.79
20971;BME280;10644;48.834;10.088;2023-01-28T04:48:39;97234.72;;;4.60;63.67
20971;BME280;10644;48.834;10.088;2023-01-28T04:51:17;97241.44;;;4.61;62.85
20971;BME280;10644;48.834;10.088;2023-01-28T04:53:48;97242.00;;;4.36;63.33
20971;BME280;10644;48.834;10.088;2023-01-28T04:56:21;97254.56;;;3.99;64.83
20971;BME280;10644;48.834;10.088;2023-01-28T04:59:12;97255.69;;;3.86;65.14
20971;BME280;10644;48.834;10.088;2023-01-28T05:01:46;97258.66;;;4.06;64.55
20971;BME280;10644;48.834;10.088;2023-01-28T05:04:19;97250.91;;;4.14;63.96
20971;BME280;10644;48.834;10.088;2023-01-28T05:06:45;97263.59;;;4.12;64.47
20971;BME280;10644;48.834;10.088;2023-01-28T05:09:17;97257.25;;;4.33;64.24
20971;BME280;10644;48.834;10.088;2023-01-28T05:12:13;97263.06;;;4.39;63.58
20971;BME280;10644;48.834;10.088;2023-01-28T05:14:38;97261.81;;;4.17;64.31
20971;BME280;10644;48.834;10.088;2023-01-28T05:17:05;97258.66;;;4.06;64.99
20971;BME280;10644;48.834;10.088;2023-01-28T05:19:38;97266.88;;;4.17;64.70
20971;BME280;10644;48.834;10.088;2023-01-28T05:22:11;97257.59;;;4.18;64.27
20971;BME280;10644;48.834;10.088;2023-01-28T05:28:31;97268.16;;;4.38;63.88
20971;BME280;10644;48.834;10.088;2023-01-28T05:31:03;97264.94;;;4.31;64.12
20971;BME280;10644;48.834;10.088;2023-01-28T05:33:52;97270.16;;;4.22;64.11
20971;BME280;10644;48.834;10.088;2023-01-28T05:36:23;97265.75;;;3.89;64.67
20971;BME280;10644;48.834;10.088;2023-01-28T05:38:50;97264.03;;;3.91;64.72
20971;BME280;10644;48.834;10.088;2023-01-28T05:41:17;97271.78;;;3.82;64.64
20971;BME280;10644;48.834;10.088;2023-01-28T05:43:45;97264.75;;;3.52;65.62
20971;BME280;10644;48.834;10.088;2023-01-28T05:46:11;97256.72;;;3.29;66.34
20971;BME280;10644;48.834;10.088;2023-01-28T05:48:58;97265.53;;;3.04;66.75
20971;BME280;10644;48.834;10.088;2023-01-28T05:51:25;97262.31;;;2.96;67.01
20971;BME280;10644;48.834;10.088;2023-01-28T05:53:50;97268.72;;;3.15;66.48
20971;BME280;10644;48.834;10.088;2023-01-28T05:56:15;97269.50;;;3.19;66.62
20971;BME280;10644;48.834;10.088;2023-01-28T05:58:49;97265.13;;;3.30;66.17
20971;BME280;10644;48.834;10.088;2023-01-28T06:01:22;97271.81;;;3.32;66.52
20971;BME280;10644;48.834;10.088;2023-01-28T06:03:48;97266.22;;;3.62;65.52
20971;BME280;10644;48.834;10.088;2023-01-28T06:06:31;97274.25;;;3.40;65.43
20971;BME280;10644;48.834;10.088;2023-01-28T06:09:26;97283.59;;;3.36;65.54
20971;BME280;10644;48.834;10.088;2023-01-28T06:12:01;97283.59;;;3.35;65.74
20971;BME280;10644;48.834;10.088;2023-01-28T06:14:58;97288.75;;;3.30;65.78
20971;BME280;10644;48.834;10.088;2023-01-28T06:17:23;97282.63;;;2.90;66.88
20971;BME280;10644;48.834;10.088;2023-01-28T06:19:56;97276.25;;;3.20;66.59
20971;BME280;10644;48.834;10.088;2023-01-28T06:22:23;97300.09;;;3.58;65.66
20971;BME280;10644;48.834;10.088;2023-01-28T06:24:53;97294.47;;;3.88;64.80
20971;BME280;10644;48.834;10.088;2023-01-28T06:27:28;97296.22;;;3.85;63.69
20971;BME280;10644;48.834;10.088;2023-01-28T06:29:55;97301.50;;;3.74;64.55
20971;BME280;10644;48.834;10.088;2023-01-28T06:32:39;97307.91;;;3.92;63.94
20971;BME280;10644;48.834;10.088;2023-01-28T06:35:15;97303.66;;;3.45;65.26
20971;BME280;10644;48.834;10.088;2023-01-28T06:37:51;97313.09;;;3.36;65.67
20971;BME280;10644;48.834;10.088;2023-01-28T06:40:38;97315.47;;;3.46;65.81
20971;BME280;10644;48.834;10.088;2023-01-28T06:43:05;97319.91;;;3.34;65.72
20971;BME280;10644;48.834;10.088;2023-01-28T06:45:32;97319.91;;;3.34;65.96
20971;BME280;10644;48.834;10.088;2023-01-28T06:48:08;97320.59;;;3.43;65.79
20971;BME280;10644;48.834;10.088;2023-01-28T06:50:40;97325.06;;;3.26;66.14
20971;BME280;10644;48.834;10.088;2023-01-28T06:53:22;97340.06;;;3.37;65.92
20971;BME280;10644;48.834;10.088;2023-01-28T06:55:47;97337.22;;;3.56;65.26
20971;BME280;10644;48.834;10.088;2023-01-28T06:58:23;97329.94;;;3.37;65.74
20971;BME280;10644;48.834;10.088;2023-01-28T07:01:00;97338.41;;;3.36;66.47
20971;BME280;10644;48.834;10.088;2023-01-28T07:03:31;97344.31;;;3.36;65.84
20971;BME280;10644;48.834;10.088;2023-01-28T07:06:17;97355.66;;;3.66;65.37
20971;BME280;10644;48.834;10.088;2023-01-28T07:08:49;97343.59;;;3.81;64.90
20971;BME280;10644;48.834;10.088;2023-01-28T07:11:17;97339.19;;;3.91;64.36
20971;BME280;10644;48.834;10.088;2023-01-28T07:14:00;97356.28;;;3.78;64.81
20971;BME280;10644;48.834;10.088;2023-01-28T07:16:32;97358.00;;;3.78;64.72
20971;BME280;10644;48.834;10.088;2023-01-28T07:19:01;97347.63;;;3.91;64.37
20971;BME280;10644;48.834;10.088;2023-01-28T07:21:26;97353.94;;;3.66;64.87
20971;BME280;10644;48.834;10.088;2023-01-28T07:24:04;97357.88;;;3.32;66.29
20971;BME280;10644;48.834;10.088;2023-01-28T07:26:34;97362.06;;;3.33;66.43
20971;BME280;10644;48.834;10.088;2023-01-28T07:29:02;97358.78;;;3.28;66.20
20971;BME280;10644;48.834;10.088;2023-01-28T07:31:34;97366.00;;;3.52;65.82
20971;BME280;10644;48.834;10.088;2023-01-28T07:34:18;97366.69;;;3.63;65.44
20971;BME280;10644;48.834;10.088;2023-01-28T07:37:05;97364.31;;;3.51;65.52
20971;BME280;10644;48.834;10.088;2023-01-28T07:39:45;97360.00;;;3.58;65.53
20971;BME280;10644;48.834;10.088;2023-01-28T07:42:27;97362.19;;;3.80;64.32
20971;BME280;10644;48.834;10.088;2023-01-28T07:44:58;97367.06;;;3.89;64.93
20971;BME280;10644;48.834;10.088;2023-01-28T07:47:33;97364.31;;;4.03;63.96
20971;BME280;10644;48.834;10.088;2023-01-28T07:50:03;97366.97;;;3.95;64.38
20971;BME280;10644;48.834;10.088;2023-01-28T07:53:01;97372.44;;;3.71;65.19
20971;BME280;10644;48.834;10.088;2023-01-28T07:58:58;97373.81;;;3.90;64.66
20971;BME280;10644;48.834;10.088;2023-01-28T08:01:37;97376.78;;;4.13;63.86
20971;BME280;10644;48.834;10.088;2023-01-28T08:04:20;97378.63;;;4.05;63.61
20971;BME280;10644;48.834;10.088;2023-01-28T08:06:49;97374.47;;;4.01;63.79
20971;BME280;10644;48.834;10.088;2023-01-28T08:09:27;97375.09;;;4.12;63.98
20971;BME280;10644;48.834;10.088;2023-01-28T08:12:06;97381.47;;;3.87;64.26
20971;BME280;10644;48.834;10.088;2023-01-28T08:14:38;97382.56;;;3.73;64.67
20971;BME280;10644;48.834;10.088;2023-01-28T08:17:09;97389.59;;;3.54;65.01
20971;BME280;10644;48.834;10.088;2023-01-28T08:19:36;97391.25;;;3.57;65.32
20971;BME280;10644;48.834;10.088;2023-01-28T08:25:31;97392.00;;;3.63;65.21
20971;BME280;10644;48.834;10.088;2023-01-28T08:28:19;97399.78;;;4.01;64.49
20971;BME280;10644;48.834;10.088;2023-01-28T08:33:44;97402.44;;;3.95;63.93
20971;BME280;10644;48.834;10.088;2023-01-28T08:36:10;97408.19;;;4.05;64.25
20971;BME280;10644;48.834;10.088;2023-01-28T08:38:45;97401.00;;;3.79;64.22
20971;BME280;10644;48.834;10.088;2023-01-28T08:41:13;97398.97;;;4.01;63.87
20971;BME280;10644;48.834;10.088;2023-01-28T08:43:38;97407.56;;;3.92;64.40
20971;BME280;10644;48.834;10.088;2023-01-28T08:46:05;97401.16;;;3.72;64.77
20971;BME280;10644;48.834;10.088;2023-01-28T08:48:31;97401.16;;;3.70;64.90
20971;BME280;10644;48.834;10.088;2023-01-28T08:50:59;97403.84;;;3.61;65.04
20971;BME280;10644;48.834;10.088;2023-01-28T08:53:26;97406.72;;;3.40;66.26
20971;BME280;10644;48.834;10.088;2023-01-28T08:56:00;97415.28;;;3.30;66.69
20971;BME280;10644;48.834;10.088;2023-01-28T08:58:28;97406.53;;;3.52;66.01
20971;BME280;10644;48.834;10.088;2023-01-28T09:01:03;97400.06;;;3.86;65.54
20971;BME280;10644;48.834;10.088;2023-01-28T09:03:31;97412.47;;;4.01;65.17
20971;BME280;10644;48.834;10.088;2023-01-28T09:06:05;97411.78;;;3.92;64.80
20971;BME280;10644;48.834;10.088;2023-01-28T09:08:31;97419.56;;;3.81;65.44
20971;BME280;10644;48.834;10.088;2023-01-28T09:10:59;97402.22;;;4.07;64.74
20971;BME280;10644;48.834;10.088;2023-01-28T09:13:31;97417.47;;;4.06;64.73
20971;BME280;10644;48.834;10.088;2023-01-28T09:15:56;97408.13;;;4.09;64.27
20971;BME280;10644;48.834;10.088;2023-01-28T09:18:28;97407.00;;;4.24;64.14
20971;BME280;10644;48.834;10.088;2023-01-28T09:20:53;97414.72;;;4.18;64.03
20971;BME280;10644;48.834;10.088;2023-01-28T09:23:19;97419.13;;;4.08;64.07
20971;BME280;10644;48.834;10.088;2023-01-28T09:25:49;97430.94;;;4.09;64.26
20971;BME280;10644;48.834;10.088;2023-01-28T09:28:16;97415.28;;;4.33;63.63
20971;BME280;10644;48.834;10.088;2023-01-28T09:30:43;97418.63;;;4.35;63.26
20971;BME280;10644;48.834;10.088;2023-01-28T09:33:08;97417.31;;;4.13;64.83
20971;BME280;10644;48.834;10.088;2023-01-28T09:35:36;97415.97;;;3.94;64.84
20971;BME280;10644;48.834;10.088;2023-01-28T09:38:01;97427.72;;;3.98;64.53
20971;BME280;10644;48.834;10.088;2023-01-28T09:40:52;97434.16;;;4.17;64.49
20971;BME280;10644;48.834;10.088;2023-01-28T09:43:46;97440.63;;;4.33;64.64
20971;BME280;10644;48.834;10.088;2023-01-28T09:46:16;97430.38;;;4.39;63.94
20971;BME280;10644;48.834;10.088;2023-01-28T09:48:49;97440.91;;;4.65;63.59
20971;BME280;10644;48.834;10.088;2023-01-28T09:51:41;97442.56;;;4.66;63.27
20971;BME280;10644;48.834;10.088;2023-01-28T09:54:26;97444.44;;;4.57;63.69
20971;BME280;10644;48.834;10.088;2023-01-28T09:57:03;97451.09;;;4.62;63.76
20971;BME280;10644;48.834;10.088;2023-01-28T09:59:34;97446.00;;;4.62;63.96
20971;BME280;10644;48.834;10.088;2023-01-28T10:07:37;97451.72;;;4.75;63.24
20971;BME280;10644;48.834;10.088;2023-01-28T10:10:26;97448.88;;;4.44;63.41
20971;BME280;10644;48.834;10.088;2023-01-28T10:19:00;97437.84;;;4.47;63.59
20971;BME280;10644;48.834;10.088;2023-01-28T10:21:42;97438.16;;;4.74;63.58
20971;BME280;10644;48.834;10.088;2023-01-28T10:24:34;97442.94;;;4.47;63.70
20971;BME280;10644;48.834;10.088;2023-01-28T10:27:01;97437.47;;;4.21;64.76
20971;BME280;10644;48.834;10.088;2023-01-28T10:29:32;97445.97;;;4.18;64.54
20971;BME280;10644;48.834;10.088;2023-01-28T10:32:10;97435.53;;;4.36;64.15
20971;BME280;10644;48.834;10.088;2023-01-28T10:34:41;97437.31;;;4.31;64.32
20971;BME280;10644;48.834;10.088;2023-01-28T10:37:11;97429.59;;;4.37;64.63
20971;BME280;10644;48.834;10.088;2023-01-28T10:39:38;97434.97;;;4.66;63.26
20971;BME280;10644;48.834;10.088;2023-01-28T10:42:16;97420.44;;;4.30;64.05
20971;BME280;10644;48.834;10.088;2023-01-28T10:44:48;97431.75;;;4.10;64.61
20971;BME280;10644;48.834;10.088;2023-01-28T10:47:40;97436.34;;;3.88;65.95
20971;BME280;10644;48.834;10.088;2023-01-28T10:50:14;97442.09;;;3.96;65.31
20971;BME280;10644;48.834;10.088;2023-01-28T10:52:56;97434.56;;;3.95;65.50
20971;BME280;10644;48.834;10.088;2023-01-28T10:55:55;97430.25;;;3.98;65.84
20971;BME280;10644;48.834;10.088;2023-01-28T10:58:27;97427.16;;;4.31;65.10
20971;BME280;10644;48.834;10.088;2023-01-28T11:00:56;97427.72;;;4.47;64.06
20971;BME280;10644;48.834;10.088;2023-01-28T11:03:26;97428.59;;;4.44;64.14
20971;BME280;10644;48.834;10.088;2023-01-28T11:05:55;97422.13;;;4.30;64.12
20971;BME280;10644;48.834;10.088;2023-01-28T11:08:23;97424.78;;;4.22;64.47
20971;BME280;10644;48.834;10.088;2023-01-28T11:10:49;97424.75;;;4.25;64.41
20971;BME280;10644;48.834;10.088;2023-01-28T11:13:27;97424.78;;;4.22;64.86
20971;BME280;10644;48.834;10.088;2023-01-28T11:16:10;97435.63;;;4.30;64.90
20971;BME280;10644;48.834;10.088;2023-01-28T11:18:47;97426.06;;;4.44;64.63
20971;BME280;10644;48.834;10.088;2023-01-28T11:21:27;97423.53;;;4.44;64.17
20971;BME280;10644;48.834;10.088;2023-01-28T11:26:42;97440.63;;;4.33;63.93
20971;BME280;10644;48.834;10.088;2023-01-28T11:31:55;97439.75;;;4.81;63.94
20971;BME280;10644;48.834;10.088;2023-01-28T11:34:33;97439.75;;;4.81;63.74
20971;BME280;10644;48.834;10.088;2023-01-28T11:37:12;97436.25;;;4.87;63.65
20971;BME280;10644;48.834;10.088;2023-01-28T11:39:41;97448.09;;;4.86;63.29
20971;BME280;10644;48.834;10.088;2023-01-28T11:44:37;97435.72;;;4.71;64.23
20971;BME280;10644;48.834;10.088;2023-01-28T11:47:29;97442.97;;;4.89;63.88
20971;BME280;10644;48.834;10.088;2023-01-28T11:53:23;97431.19;;;4.85;63.42
20971;BME280;10644;48.834;10.088;2023-01-28T11:56:23;97433.44;;;4.56;64.77
20971;BME280;10644;48.834;10.088;2023-01-28T12:10:48;97418.97;;;4.63;64.62
20971;BME280;10644;48.834;10.088;2023-01-28T12:13:52;97419.84;;;4.60;64.90
20971;BME280;10644;48.834;10.088;2023-01-28T12:26:11;97413.59;;;4.34;64.82
20971;BME280;10644;48.834;10.088;2023-01-28T12:32:04;97415.72;;;4.97;64.52
20971;BME280;10644;48.834;10.088;2023-01-28T12:38:14;97396.94;;;5.06;63.69
20971;BME280;10644;48.834;10.088;2023-01-28T12:41:17;97417.63;;;4.86;63.96
20971;BME280;10644;48.834;10.088;2023-01-28T12:44:04;97404.94;;;4.86;63.89
20971;BME280;10644;48.834;10.088;2023-01-28T12:50:04;97408.91;;;5.01;63.08
20971;BME280;10644;48.834;10.088;2023-01-28T12:52:41;97419.75;;;5.07;62.92
20971;BME280;10644;48.834;10.088;2023-01-28T12:55:20;97409.63;;;5.06;63.15
20971;BME280;10644;48.834;10.088;2023-01-28T12:58:01;97414.38;;;4.81;63.96
20971;BME280;10644;48.834;10.088;2023-01-28T13:00:40;97417.75;;;4.80;63.53
20971;BME280;10644;48.834;10.088;2023-01-28T13:09:17;97422.66;;;4.89;63.78
20971;BME280;10644;48.834;10.088;2023-01-28T13:11:57;97420.06;;;4.92;64.16
20971;BME280;10644;48.834;10.088;2023-01-28T13:14:45;97420.28;;;4.82;63.84
20971;BME280;10644;48.834;10.088;2023-01-28T13:20:35;97429.09;;;4.64;64.96
20971;BME280;10644;48.834;10.088;2023-01-28T13:23:22;97425.59;;;4.68;64.82
20971;BME280;10644;48.834;10.088;2023-01-28T13:26:08;97433.91;;;4.31;66.11
20971;BME280;10644;48.834;10.088;2023-01-28T13:28:35;97425.75;;;4.15;67.13
20971;BME280;10644;48.834;10.088;2023-01-28T13:31:12;97424.91;;;4.15;66.48
20971;BME280;10644;48.834;10.088;2023-01-28T13:36:24;97429.09;;;4.17;66.11
20971;BME280;10644;48.834;10.088;2023-01-28T13:39:25;97435.88;;;4.15;65.90
20971;BME280;10644;48.834;10.088;2023-01-28T13:45:19;97432.63;;;4.07;66.48
20971;BME280;10644;48.834;10.088;2023-01-28T13:48:12;97433.00;;;4.35;66.04
20971;BME280;10644;48.834;10.088;2023-01-28T13:51:18;97434.19;;;4.61;65.59
20971;BME280;10644;48.834;10.088;2023-01-28T13:53:46;97438.72;;;4.90;64.76
20971;BME280;10644;48.834;10.088;2023-01-28T13:56:30;97433.69;;;4.87;63.83
20971;BME280;10644;48.834;10.088;2023-01-28T14:02:19;97432.91;;;5.26;63.04
20971;BME280;10644;48.834;10.088;2023-01-28T14:10:54;97435.94;;;4.59;64.23
20971;BME280;10644;48.834;10.088;2023-01-28T14:13:36;97446.94;;;4.58;64.52
20971;BME280;10644;48.834;10.088;2023-01-28T14:19:37;97460.22;;;4.72;63.92
20971;BME280;10644;48.834;10.088;2023-01-28T14:22:21;97453.28;;;4.80;63.76
20971;BME280;10644;48.834;10.088;2023-01-28T14:24:59;97459.53;;;4.64;63.69
20971;BME280;10644;48.834;10.088;2023-01-28T14:27:40;97467.53;;;4.42;64.42
20971;BME280;10644;48.834;10.088;2023-01-28T14:32:48;97459.97;;;4.84;63.53
20971;BME280;10644;48.834;10.088;2023-01-28T14:35:28;97468.13;;;4.56;64.58
20971;BME280;10644;48.834;10.088;2023-01-28T14:37:55;97474.03;;;4.56;64.26
20971;BME280;10644;48.834;10.088;2023-01-28T14:40:23;97467.75;;;4.28;65.19
20971;BME280;10644;48.834;10.088;2023-01-28T14:42:54;97468.66;;;4.26;65.21
20971;BME280;10644;48.834;10.088;2023-01-28T14:51:40;97481.84;;;4.46;63.56
20971;BME280;10644;48.834;10.088;2023-01-28T15:03:17;97495.75;;;4.22;64.73
20971;BME280;10644;48.834;10.088;2023-01-28T15:05:43;97500.56;;;4.39;64.19
20971;BME280;10644;48.834;10.088;2023-01-28T15:08:18;97496.75;;;4.61;63.51
20971;BME280;10644;48.834;10.088;2023-01-28T15:10:51;97507.59;;;4.70;63.37
20971;BME280;10644;48.834;10.088;2023-01-28T15:13:40;97505.13;;;4.66;63.39
20971;BME280;10644;48.834;10.088;2023-01-28T15:16:45;97503.56;;;4.60;63.48
20971;BME280;10644;48.834;10.088;2023-01-28T15:19:38;97504.25;;;4.68;63.35
20971;BME280;10644;48.834;10.088;2023-01-28T15:22:06;97509.28;;;4.71;63.62
20971;BME280;10644;48.834;10.088;2023-01-28T15:25:33;97497.22;;;4.82;62.91
20971;BME280;10644;48.834;10.088;2023-01-28T15:28:05;97503.38;;;4.69;62.74
20971;BME280;10644;48.834;10.088;2023-01-28T15:30:57;97509.50;;;4.59;63.89
20971;BME280;10644;48.834;10.088;2023-01-28T15:33:39;97512.38;;;4.85;63.08
20971;BME280;10644;48.834;10.088;2023-01-28T15:36:13;97512.44;;;4.84;63.05
20971;BME280;10644;48.834;10.088;2023-01-28T15:38:42;97512.28;;;4.91;62.66
20971;BME280;10644;48.834;10.088;2023-01-28T15:41:11;97521.38;;;5.01;62.71
20971;BME280;10644;48.834;10.088;2023-01-28T15:43:49;97524.16;;;4.89;62.19
20971;BME280;10644;48.834;10.088;2023-01-28T15:46:21;97536.09;;;4.84;62.68
20971;BME280;10644;48.834;10.088;2023-01-28T15:49:12;97532.66;;;4.87;62.60
20971;BME280;10644;48.834;10.088;2023-01-28T15:52:10;97528.13;;;5.04;62.30
20971;BME280;10644;48.834;10.088;2023-01-28T15:54:50;97536.09;;;4.84;61.76
20971;BME280;10644;48.834;10.088;2023-01-28T15:57:31;97544.31;;;4.98;62.25
20971;BME280;10644;48.834;10.088;2023-01-28T16:00:32;97540.34;;;4.84;61.95
20971;BME280;10644;48.834;10.088;2023-01-28T16:03:19;97533.41;;;4.92;62.13
20971;BME280;10644;48.834;10.088;2023-01-28T16:06:16;97543.22;;;4.64;62.44
20971;BME280;10644;48.834;10.088;2023-01-28T16:08:52;97540.50;;;4.75;62.25
20971;BME280;10644;48.834;10.088;2023-01-28T16:11:23;97546.88;;;4.95;62.25
20971;BME280;10644;48.834;10.088;2023-01-28T16:13:56;97544.13;;;5.07;61.15
20971;BME280;10644;48.834;10.088;2023-01-28T16:16:34;97545.91;;;5.02;61.21
20971;BME280;10644;48.834;10.088;2023-01-28T16:19:39;97545.84;;;5.05;61.61
20971;BME280;10644;48.834;10.088;2023-01-28T16:22:06;97548.03;;;5.23;60.63
20971;BME280;10644;48.834;10.088;2023-01-28T16:24:33;97532.69;;;4.85;61.21
20971;BME280;10644;48.834;10.088;2023-01-28T16:27:02;97553.19;;;4.75;61.49
20971;BME280;10644;48.834;10.088;2023-01-28T16:29:29;97543.59;;;4.42;62.12
20971;BME280;10644;48.834;10.088;2023-01-28T16:31:57;97543.38;;;4.54;62.14
20971;BME280;10644;48.834;10.088;2023-01-28T16:34:24;97558.25;;;4.76;61.23